Time;durP1;ratioP1;P1;durP2;ratioP2;P2;SDS_P1;SDS_P2;PMS_P1;PMS_P2;Temp;Humidity;BMP_temperature;BMP_pressure;BME280_temperature;BME280_humidity;BME280_pressure;Samples;Min_cycle;Max_cycle;Signal;HPM_P1;HPM_P2
2021/03/11 00:01:58;;;;;;;36.95;22.33;;;6.70;99.90;;;;;;5050002;28;20021;-45
2021/03/11 00:04:23;;;;;;;42.17;22.77;;;6.70;99.90;;;;;;5050194;28;20447;-45
2021/03/11 00:06:49;;;;;;;40.35;23.48;;;6.70;99.90;;;;;;5049640;28;20022;-45
2021/03/11 00:09:14;;;;;;;43.67;23.67;;;6.60;99.90;;;;;;5049613;28;20029;-46
2021/03/11 00:11:40;;;;;;;43.00;24.17;;;6.50;99.90;;;;;;5049628;28;20053;-45
2021/03/11 00:14:05;;;;;;;43.63;24.73;;;6.50;99.90;;;;;;5048449;28;20017;-45
2021/03/11 00:16:31;;;;;;;44.83;25.58;;;6.40;99.90;;;;;;5048265;28;20040;-45
2021/03/11 00:18:56;;;;;;;39.05;22.02;;;6.40;99.90;;;;;;5049771;28;20063;-45
2021/03/11 00:21:22;;;;;;;42.53;23.73;;;6.40;99.90;;;;;;5049446;28;20025;-45
2021/03/11 00:23:47;;;;;;;46.75;25.08;;;6.30;99.90;;;;;;5048464;28;20041;-45
2021/03/11 00:26:13;;;;;;;48.05;24.30;;;6.20;99.90;;;;;;5048923;28;20029;-45
2021/03/11 00:28:38;;;;;;;50.67;24.73;;;6.10;99.90;;;;;;5049420;28;20455;-45
2021/03/11 00:31:04;;;;;;;46.42;22.50;;;6.10;99.90;;;;;;5049622;28;20080;-45
2021/03/11 00:33:29;;;;;;;44.45;21.40;;;6.10;99.90;;;;;;5047677;28;20033;-46
2021/03/11 00:35:56;;;;;;;35.78;21.48;;;6.20;99.90;;;;;;5046965;28;20021;-45
2021/03/11 00:38:21;;;;;;;38.38;21.85;;;6.20;99.90;;;;;;5049176;28;20487;-45
2021/03/11 00:40:47;;;;;;;42.30;21.63;;;6.20;99.90;;;;;;5048750;28;20029;-45
2021/03/11 00:43:14;;;;;;;55.33;22.70;;;6.10;99.90;;;;;;5049075;28;20029;-46
2021/03/11 00:45:40;;;;;;;44.45;22.00;;;6.10;99.90;;;;;;5057249;28;20032;-45
2021/03/11 00:48:06;;;;;;;38.10;20.75;;;6.10;99.90;;;;;;5067321;28;20021;-46
2021/03/11 00:50:32;;;;;;;41.13;21.10;;;6.10;99.90;;;;;;5068881;28;20029;-45
2021/03/11 00:52:57;;;;;;;40.13;20.58;;;6.00;99.90;;;;;;5061547;28;20412;-45
2021/03/11 00:55:23;;;;;;;39.90;22.58;;;6.00;99.90;;;;;;5048545;28;20021;-45
2021/03/11 00:57:48;;;;;;;38.40;20.33;;;6.00;99.90;;;;;;5049131;28;20024;-45
2021/03/11 01:00:19;;;;;;;42.58;22.02;;;6.00;99.90;;;;;;5049000;28;20498;-44
2021/03/11 01:02:45;;;;;;;40.50;20.70;;;5.90;99.90;;;;;;5047586;28;20028;-45
2021/03/11 01:05:13;;;;;;;38.55;20.73;;;5.90;99.90;;;;;;5046897;28;20020;-46
2021/03/11 01:07:39;;;;;;;40.38;20.85;;;5.90;99.90;;;;;;5048720;28;20021;-45
2021/03/11 01:10:05;;;;;;;39.13;20.02;;;5.90;99.90;;;;;;5048836;28;20040;-45
2021/03/11 01:12:30;;;;;;;39.30;19.38;;;5.80;99.90;;;;;;5048349;28;20246;-45
2021/03/11 01:14:56;;;;;;;38.20;20.33;;;5.80;99.90;;;;;;5047263;28;20065;-46
2021/03/11 01:17:21;;;;;;;39.38;19.52;;;5.80;99.90;;;;;;5048935;28;20036;-45
2021/03/11 01:19:47;;;;;;;36.78;20.88;;;5.80;99.90;;;;;;5047923;28;20033;-46
2021/03/11 01:22:12;;;;;;;33.45;19.10;;;5.80;99.90;;;;;;5046905;28;20098;-46
2021/03/11 01:24:38;;;;;;;40.30;20.55;;;5.80;99.90;;;;;;5048483;28;20044;-45
2021/03/11 01:27:04;;;;;;;36.28;19.33;;;5.80;99.90;;;;;;5048027;28;20029;-45
2021/03/11 01:29:29;;;;;;;39.03;19.90;;;5.80;99.90;;;;;;5047139;28;20032;-45
2021/03/11 01:31:55;;;;;;;35.47;20.05;;;5.70;99.90;;;;;;5048807;28;20025;-46
2021/03/11 01:34:20;;;;;;;37.65;18.73;;;5.70;99.90;;;;;;5048215;28;20021;-46
2021/03/11 01:36:46;;;;;;;41.05;19.05;;;5.70;99.90;;;;;;5047094;28;20032;-45
2021/03/11 01:39:11;;;;;;;34.88;19.38;;;5.70;99.90;;;;;;5048614;28;20506;-45
2021/03/11 01:41:37;;;;;;;31.35;18.38;;;5.70;99.90;;;;;;5048591;28;20040;-45
2021/03/11 01:44:03;;;;;;;34.50;18.27;;;5.60;99.90;;;;;;5047803;28;20040;-45
2021/03/11 01:46:28;;;;;;;29.45;17.85;;;5.70;99.90;;;;;;5047768;28;20044;-47
2021/03/11 01:48:54;;;;;;;52.28;20.23;;;5.60;99.90;;;;;;5046970;28;20071;-46
2021/03/11 01:51:21;;;;;;;32.53;18.13;;;5.60;99.90;;;;;;5048223;28;20051;-47
2021/03/11 01:53:48;;;;;;;36.20;18.40;;;5.60;99.90;;;;;;5048086;28;20418;-48
2021/03/11 01:56:13;;;;;;;28.38;16.77;;;5.60;99.90;;;;;;5047399;28;20029;-47
2021/03/11 01:58:39;;;;;;;30.25;17.30;;;5.60;99.90;;;;;;5047921;28;20110;-49
2021/03/11 02:01:05;;;;;;;32.42;16.88;;;5.60;99.90;;;;;;5047755;28;20031;-47
2021/03/11 02:03:31;;;;;;;36.45;19.40;;;5.50;99.90;;;;;;5047959;28;20025;-46
2021/03/11 02:05:56;;;;;;;36.83;19.45;;;5.50;99.90;;;;;;5047387;28;20280;-47
2021/03/11 02:08:21;;;;;;;36.42;19.02;;;5.50;99.90;;;;;;5048187;28;20025;-46
2021/03/11 02:10:47;;;;;;;39.17;20.27;;;5.50;99.90;;;;;;5048406;28;20386;-46
2021/03/11 02:13:34;;;;;;;39.47;22.38;;;5.50;99.90;;;;;;5046691;28;20489;-45
2021/03/11 02:16:24;;;;;;;40.17;20.83;;;5.40;99.90;;;;;;5047852;28;20021;-46
2021/03/11 02:18:58;;;;;;;42.78;22.90;;;5.40;99.90;;;;;;5048065;28;20102;-48
2021/03/11 02:21:30;;;;;;;39.80;21.40;;;5.30;99.90;;;;;;5047925;28;20080;-48
2021/03/11 02:23:56;;;;;;;44.47;23.08;;;5.20;99.90;;;;;;5048141;28;20033;-46
2021/03/11 02:26:54;;;;;;;54.40;24.35;;;5.20;99.90;;;;;;5045839;28;20079;-47
2021/03/11 02:29:32;;;;;;;44.13;22.38;;;5.30;99.90;;;;;;5047485;28;20025;-47
2021/03/11 02:32:01;;;;;;;44.80;21.48;;;5.30;99.90;;;;;;5048087;28;20475;-47
2021/03/11 02:34:32;;;;;;;51.05;23.13;;;5.20;99.90;;;;;;5047830;28;20025;-46
2021/03/11 02:37:01;;;;;;;56.83;26.58;;;5.10;99.90;;;;;;5046158;28;20028;-46
2021/03/11 02:39:28;;;;;;;52.97;24.58;;;5.10;99.90;;;;;;5048052;28;20025;-46
2021/03/11 02:55:23;;;;;;;49.13;24.25;;;5.00;99.90;;;;;;5050368;28;20071;-49
2021/03/11 02:57:51;;;;;;;54.05;26.05;;;5.10;99.90;;;;;;5049709;28;20071;-45
2021/03/11 03:10:28;;;;;;;71.90;30.40;;;4.90;99.90;;;;;;5050947;28;20547;-46
2021/03/11 03:12:57;;;;;;;77.03;30.90;;;4.90;99.90;;;;;;5050582;28;20029;-45
2021/03/11 03:15:23;;;;;;;69.70;29.50;;;4.90;99.90;;;;;;5049922;28;20032;-46
2021/03/11 03:17:51;;;;;;;67.60;29.73;;;4.90;99.90;;;;;;5050901;28;20539;-46
2021/03/11 03:20:18;;;;;;;55.50;26.40;;;4.90;99.90;;;;;;5050968;28;20025;-48
2021/03/11 03:22:45;;;;;;;52.33;25.55;;;4.80;99.90;;;;;;5049393;28;20100;-46
2021/03/11 03:25:12;;;;;;;60.95;26.20;;;4.90;99.90;;;;;;5050019;28;20032;-46
2021/03/11 03:27:39;;;;;;;59.80;28.02;;;5.00;99.90;;;;;;5050339;28;20025;-46
2021/03/11 03:30:09;;;;;;;53.33;25.20;;;5.00;99.90;;;;;;5050455;28;20047;-46
2021/03/11 03:32:35;;;;;;;54.97;25.70;;;5.00;99.90;;;;;;5063673;28;20142;-47
2021/03/11 03:35:03;;;;;;;53.13;26.17;;;4.90;99.90;;;;;;5069909;28;20116;-48
2021/03/11 03:37:29;;;;;;;49.47;25.08;;;4.90;99.90;;;;;;5065275;28;20402;-48
2021/03/11 03:39:54;;;;;;;60.25;28.70;;;4.90;99.90;;;;;;5057591;28;20024;-48
2021/03/11 03:42:20;;;;;;;66.05;28.65;;;4.90;99.90;;;;;;5060845;28;20463;-48
2021/03/11 03:44:47;;;;;;;68.88;28.73;;;4.90;99.90;;;;;;5058608;28;20058;-48
2021/03/11 03:47:15;;;;;;;65.15;27.77;;;4.90;99.90;;;;;;5057317;28;20391;-46
2021/03/11 03:49:41;;;;;;;66.57;29.88;;;4.90;99.90;;;;;;5058782;28;20012;-45
2021/03/11 03:52:08;;;;;;;56.83;26.27;;;4.90;99.90;;;;;;5058834;28;20398;-47
2021/03/11 03:54:41;;;;;;;58.40;26.48;;;4.90;99.90;;;;;;5059936;28;20017;-45
2021/03/11 03:57:12;;;;;;;62.70;25.75;;;4.90;99.90;;;;;;5058590;28;20573;-47
2021/03/11 03:59:39;;;;;;;49.05;25.00;;;5.00;99.90;;;;;;5058845;28;20409;-46
2021/03/11 04:02:06;;;;;;;53.70;25.33;;;5.10;99.90;;;;;;5060922;28;20012;-45
2021/03/11 04:04:42;;;;;;;54.45;25.88;;;5.00;99.90;;;;;;5059065;28;20021;-46
2021/03/11 04:07:10;;;;;;;53.75;25.33;;;5.00;99.90;;;;;;5058241;28;20405;-47
2021/03/11 04:09:38;;;;;;;56.50;24.60;;;5.10;99.90;;;;;;5058389;28;20020;-45
2021/03/11 04:12:05;;;;;;;55.22;25.52;;;5.00;99.90;;;;;;5058684;28;20040;-46
2021/03/11 04:14:31;;;;;;;56.40;25.65;;;5.10;99.90;;;;;;5056589;28;20020;-47
2021/03/11 04:16:58;;;;;;;48.08;24.60;;;5.10;99.90;;;;;;5059274;28;20103;-46
2021/03/11 04:19:24;;;;;;;53.28;25.13;;;5.00;99.90;;;;;;5058243;28;20074;-44
2021/03/11 04:21:51;;;;;;;58.05;26.60;;;5.10;99.90;;;;;;5058378;28;20020;-48
2021/03/11 04:24:17;;;;;;;54.15;27.42;;;5.00;99.90;;;;;;5059265;28;20024;-44
2021/03/11 04:26:43;;;;;;;60.55;26.25;;;5.00;99.90;;;;;;5059925;28;20033;-44
2021/03/11 04:29:09;;;;;;;66.45;28.27;;;5.10;99.90;;;;;;5049132;28;20032;-47
2021/03/11 04:31:35;;;;;;;68.78;28.83;;;5.10;99.90;;;;;;5062824;28;20036;-45
2021/03/11 04:34:03;;;;;;;69.97;29.77;;;5.10;99.90;;;;;;5069393;28;20054;-45
2021/03/11 04:36:30;;;;;;;73.35;30.50;;;5.10;99.90;;;;;;5068782;28;20547;-45
2021/03/11 04:38:56;;;;;;;78.15;32.00;;;5.10;99.90;;;;;;5067264;28;20417;-45
2021/03/11 04:41:22;;;;;;;67.13;29.48;;;5.10;99.90;;;;;;5049280;28;20112;-45
2021/03/11 04:43:48;;;;;;;66.80;30.63;;;5.10;99.90;;;;;;5049022;28;20233;-46
2021/03/11 04:46:17;;;;;;;67.97;28.75;;;5.10;99.90;;;;;;5048563;28;20108;-47
2021/03/11 04:48:43;;;;;;;71.97;31.30;;;5.10;99.90;;;;;;5049272;28;20108;-45
2021/03/11 04:51:11;;;;;;;65.55;29.00;;;5.10;99.90;;;;;;5049199;28;20104;-45
2021/03/11 04:53:37;;;;;;;67.97;30.63;;;5.10;99.90;;;;;;5049267;28;20367;-44
2021/03/11 04:56:05;;;;;;;62.08;28.90;;;5.20;99.90;;;;;;5048382;28;20028;-44
2021/03/11 04:58:30;;;;;;;72.60;30.80;;;5.10;99.90;;;;;;5056039;28;20086;-44
2021/03/11 05:00:58;;;;;;;77.55;31.23;;;5.20;99.90;;;;;;5059453;28;20029;-45
2021/03/11 05:03:24;;;;;;;60.63;28.45;;;5.10;99.90;;;;;;5067298;28;20029;-47
2021/03/11 05:05:50;;;;;;;74.47;32.42;;;5.10;99.90;;;;;;5067507;28;20116;-44
2021/03/11 05:08:16;;;;;;;67.40;30.08;;;5.20;99.90;;;;;;5049866;28;20504;-47
2021/03/11 05:10:41;;;;;;;77.70;33.03;;;5.20;99.90;;;;;;5047933;28;20025;-45
2021/03/11 05:13:07;;;;;;;71.40;30.77;;;5.20;99.90;;;;;;5048488;28;20017;-47
2021/03/11 05:15:32;;;;;;;73.47;29.90;;;5.20;99.90;;;;;;5048207;28;20098;-45
2021/03/11 05:17:58;;;;;;;81.30;30.42;;;5.20;99.90;;;;;;5049041;28;20033;-46
2021/03/11 05:20:25;;;;;;;61.22;28.50;;;5.30;99.90;;;;;;5048639;28;20539;-46
2021/03/11 05:22:51;;;;;;;69.55;30.35;;;5.30;99.90;;;;;;5048863;28;20123;-47
2021/03/11 05:25:17;;;;;;;72.25;31.67;;;5.30;99.90;;;;;;5047800;28;20021;-45
2021/03/11 05:27:43;;;;;;;72.18;29.80;;;5.40;99.90;;;;;;5047088;28;20576;-46
2021/03/11 05:30:11;;;;;;;73.28;30.58;;;5.40;99.90;;;;;;5047793;28;20441;-47
2021/03/11 05:32:39;;;;;;;63.25;29.13;;;5.50;99.90;;;;;;5057146;28;20099;-48
2021/03/11 05:35:05;;;;;;;64.20;28.40;;;5.50;99.90;;;;;;5058217;28;20099;-45
2021/03/11 05:37:32;;;;;;;61.92;29.05;;;5.50;99.90;;;;;;5056953;28;20029;-46
2021/03/11 05:39:58;;;;;;;64.90;30.40;;;5.60;99.90;;;;;;5052458;28;20051;-45
2021/03/11 05:42:26;;;;;;;56.47;27.13;;;5.60;99.90;;;;;;5062980;28;20029;-45
2021/03/11 05:44:52;;;;;;;47.45;24.50;;;5.60;99.90;;;;;;5064895;28;20048;-45
2021/03/11 05:47:19;;;;;;;54.17;25.20;;;5.60;99.90;;;;;;5065999;28;20026;-45
2021/03/11 05:49:46;;;;;;;42.97;21.33;;;5.70;99.90;;;;;;5065703;28;20028;-45
2021/03/11 05:52:13;;;;;;;48.50;23.73;;;5.70;99.90;;;;;;5058382;28;20104;-46
2021/03/11 05:54:39;;;;;;;44.70;22.92;;;5.80;99.90;;;;;;5056182;28;20100;-48
2021/03/11 05:57:07;;;;;;;43.92;22.58;;;5.90;99.90;;;;;;5055601;28;20223;-45
2021/03/11 05:59:34;;;;;;;36.30;20.52;;;5.90;99.90;;;;;;5048102;28;20051;-46
2021/03/11 06:02:05;;;;;;;40.70;21.02;;;6.10;99.90;;;;;;5048052;28;20429;-45
2021/03/11 06:04:34;;;;;;;40.20;21.85;;;6.20;99.90;;;;;;5054388;28;20270;-47
2021/03/11 06:07:00;;;;;;;38.88;22.33;;;6.20;99.90;;;;;;5061506;28;20505;-46
2021/03/11 06:09:26;;;;;;;37.13;21.35;;;6.20;99.90;;;;;;5060253;28;20028;-44
2021/03/11 06:11:52;;;;;;;44.58;23.55;;;6.20;99.90;;;;;;5069591;28;20036;-45
2021/03/11 06:14:18;;;;;;;36.33;20.52;;;6.20;99.90;;;;;;5068693;28;20021;-46
2021/03/11 06:16:51;;;;;;;38.83;20.38;;;6.30;99.90;;;;;;5070773;28;20029;-45
2021/03/11 06:19:17;;;;;;;36.30;19.00;;;6.40;99.90;;;;;;5063433;28;20099;-46
2021/03/11 06:21:44;;;;;;;34.53;18.40;;;6.50;99.90;;;;;;5082370;28;20118;-45
2021/03/11 06:24:10;;;;;;;30.20;17.90;;;6.70;99.90;;;;;;5075264;28;20025;-46
2021/03/11 06:26:36;;;;;;;35.85;19.55;;;6.80;99.90;;;;;;5067954;28;20378;-44
2021/03/11 06:29:01;;;;;;;32.10;17.88;;;6.80;99.90;;;;;;5060614;28;20096;-48
2021/03/11 06:31:31;;;;;;;31.90;18.60;;;6.90;99.90;;;;;;5085183;28;20024;-46
2021/03/11 06:33:58;;;;;;;33.47;17.73;;;6.90;99.90;;;;;;5072277;28;20046;-43
2021/03/11 06:36:26;;;;;;;30.67;17.77;;;6.90;99.90;;;;;;5064072;28;20033;-46
2021/03/11 06:38:52;;;;;;;32.55;17.33;;;6.90;99.90;;;;;;5073562;28;20649;-49
2021/03/11 06:41:18;;;;;;;25.88;15.70;;;7.00;99.90;;;;;;5077402;28;20051;-45
2021/03/11 06:43:53;;;;;;;26.15;16.30;;;7.00;99.90;;;;;;5068853;28;20036;-45
2021/03/11 06:46:24;;;;;;;26.40;15.60;;;7.00;99.90;;;;;;5050784;28;20040;-45
2021/03/11 06:48:50;;;;;;;;;;;7.00;99.90;;;;;;5051792;28;20013;-45
2021/03/11 06:51:20;;;;;;;27.17;15.35;;;7.00;99.90;;;;;;5051072;28;20397;-45
2021/03/11 06:53:57;;;;;;;30.42;16.13;;;7.00;99.90;;;;;;5051174;28;20028;-45
2021/03/11 06:56:23;;;;;;;33.15;17.67;;;7.00;99.90;;;;;;5049133;28;20502;-44
2021/03/11 06:59:03;;;;;;;27.52;16.35;;;7.00;99.90;;;;;;5079135;28;20070;-44
2021/03/11 07:01:33;;;;;;;29.13;16.48;;;7.10;99.90;;;;;;5089968;28;20122;-45
2021/03/11 07:04:01;;;;;;;25.20;15.75;;;7.10;99.90;;;;;;5091326;28;20028;-46
2021/03/11 07:06:34;;;;;;;26.77;14.38;;;7.10;99.90;;;;;;5090505;28;20024;-45
2021/03/11 07:09:01;;;;;;;27.20;15.38;;;7.20;99.90;;;;;;5091086;28;20021;-48
2021/03/11 07:11:28;;;;;;;26.95;14.15;;;7.20;99.90;;;;;;5089825;28;20431;-45
2021/03/11 07:13:55;;;;;;;24.75;15.23;;;7.20;99.90;;;;;;5068434;28;20032;-45
2021/03/11 07:16:23;;;;;;;25.85;14.90;;;7.20;99.90;;;;;;5055974;28;20106;-47
2021/03/11 07:19:09;;;;;;;26.23;14.40;;;7.30;99.90;;;;;;5063560;28;20040;-49
2021/03/11 07:21:51;;;;;;;25.77;14.73;;;7.20;99.90;;;;;;5071477;28;20040;-47
2021/03/11 07:24:37;;;;;;;23.65;13.77;;;7.30;99.90;;;;;;5091145;28;20485;-45
2021/03/11 07:27:04;;;;;;;27.73;15.70;;;7.20;99.90;;;;;;5068926;28;20090;-46
2021/03/11 07:29:29;;;;;;;26.88;15.82;;;7.20;99.90;;;;;;5067376;28;20025;-49
2021/03/11 07:32:03;;;;;;;27.60;17.35;;;7.20;99.90;;;;;;5059824;28;20040;-46
2021/03/11 07:34:33;;;;;;;31.85;17.08;;;7.10;99.90;;;;;;5062782;28;20021;-47
2021/03/11 07:37:00;;;;;;;25.25;14.52;;;7.10;99.90;;;;;;5062474;28;20393;-48
2021/03/11 07:39:39;;;;;;;52.50;29.95;;;7.10;99.90;;;;;;5070787;28;20099;-47
2021/03/11 07:42:06;;;;;;;40.03;22.13;;;7.10;99.90;;;;;;5063682;28;20359;-47
2021/03/11 07:44:33;;;;;;;28.58;17.38;;;7.10;99.90;;;;;;5050121;28;20049;-45
2021/03/11 07:46:59;;;;;;;27.05;15.55;;;7.10;99.90;;;;;;5049629;28;20207;-46
2021/03/11 07:49:28;;;;;;;26.40;16.23;;;7.10;99.90;;;;;;5050006;28;20021;-46
2021/03/11 07:51:54;;;;;;;31.90;17.33;;;7.10;99.90;;;;;;5049994;28;20094;-48
2021/03/11 07:54:21;;;;;;;28.33;16.73;;;7.20;99.90;;;;;;5048805;28;20100;-46
2021/03/11 07:56:51;;;;;;;27.35;14.75;;;7.20;99.90;;;;;;5049555;28;20032;-46
2021/03/11 07:59:17;;;;;;;28.23;15.68;;;7.30;99.90;;;;;;5049427;28;20090;-46
2021/03/11 08:01:53;;;;;;;27.80;15.27;;;7.30;99.90;;;;;;5049916;28;20090;-49
2021/03/11 08:04:21;;;;;;;25.05;15.73;;;7.30;99.90;;;;;;5049791;28;20030;-47
2021/03/11 08:06:48;;;;;;;28.33;14.85;;;7.40;99.90;;;;;;5049282;28;20139;-46
2021/03/11 08:09:33;;;;;;;26.13;14.88;;;7.40;99.90;;;;;;5049920;28;20021;-46
2021/03/11 08:11:58;;;;;;;29.67;14.20;;;7.40;99.90;;;;;;5049724;28;20427;-45
2021/03/11 08:14:25;;;;;;;23.73;13.60;;;7.50;99.90;;;;;;5049486;28;20048;-47
2021/03/11 08:16:52;;;;;;;22.65;13.15;;;7.50;99.90;;;;;;5049141;28;20025;-49
2021/03/11 08:19:36;;;;;;;23.65;12.88;;;7.50;99.90;;;;;;5048587;28;20027;-46
2021/03/11 08:22:03;;;;;;;22.58;12.60;;;7.60;99.90;;;;;;5049805;28;20039;-47
2021/03/11 08:24:45;;;;;;;24.98;13.75;;;7.60;99.90;;;;;;5049600;28;20478;-46
2021/03/11 08:27:29;;;;;;;25.63;12.85;;;7.70;99.90;;;;;;5049244;28;20356;-46
2021/03/11 08:29:55;;;;;;;22.42;12.25;;;7.70;99.90;;;;;;5049115;28;20053;-47
2021/03/11 08:32:47;;;;;;;45.40;23.45;;;7.80;99.90;;;;;;5049469;28;20063;-46
2021/03/11 08:35:27;;;;;;;17.90;11.07;;;7.90;99.90;;;;;;5048714;28;20021;-46
2021/03/11 08:37:53;;;;;;;18.48;10.98;;;7.90;99.90;;;;;;5049249;28;20032;-48
2021/03/11 08:40:42;;;;;;;18.50;11.07;;;8.00;99.90;;;;;;5056144;28;20029;-46
2021/03/11 08:43:07;;;;;;;16.17;10.00;;;8.10;99.90;;;;;;5058941;28;20021;-48
2021/03/11 08:45:33;;;;;;;14.50;9.15;;;8.10;99.90;;;;;;5057880;28;20035;-47
2021/03/11 08:48:11;;;;;;;17.65;9.13;;;8.20;99.90;;;;;;5057652;28;20024;-45
2021/03/11 08:50:36;;;;;;;15.77;9.52;;;8.30;99.90;;;;;;5057421;28;20501;-47
2021/03/11 08:53:02;;;;;;;15.55;8.32;;;8.30;99.90;;;;;;5069834;28;20029;-46
2021/03/11 08:55:38;;;;;;;14.40;8.35;;;8.40;99.90;;;;;;5068686;28;20029;-46
2021/03/11 08:58:22;;;;;;;15.07;8.60;;;8.40;99.90;;;;;;5070583;28;20020;-46
2021/03/11 09:01:02;;;;;;;16.77;8.52;;;8.40;99.90;;;;;;5052841;28;20421;-45
2021/03/11 09:03:39;;;;;;;16.48;8.50;;;8.60;99.90;;;;;;5050555;28;20410;-48
2021/03/11 09:06:06;;;;;;;12.93;7.72;;;8.80;99.90;;;;;;5051740;28;20734;-46
2021/03/11 09:08:36;;;;;;;10.80;7.05;;;9.20;99.90;;;;;;5058621;28;20651;-48
2021/03/11 09:11:12;;;;;;;10.95;7.20;;;10.10;99.90;;;;;;5054128;28;20020;-44
2021/03/11 09:13:42;;;;;;;8.80;6.60;;;11.40;99.90;;;;;;5049294;28;20025;-45
2021/03/11 09:16:10;;;;;;;9.87;7.03;;;12.00;99.90;;;;;;5043986;28;20757;-47
2021/03/11 09:18:36;;;;;;;7.28;5.82;;;11.80;99.90;;;;;;5049594;28;20267;-45
2021/03/11 09:21:06;;;;;;;11.82;6.20;;;11.40;99.90;;;;;;5055306;28;20029;-46
2021/03/11 09:23:37;;;;;;;10.57;6.25;;;10.90;99.90;;;;;;5067086;28;20117;-48
2021/03/11 09:26:03;;;;;;;9.27;5.95;;;10.60;99.90;;;;;;5062548;28;20139;-48
2021/03/11 09:28:29;;;;;;;6.65;4.88;;;10.40;99.90;;;;;;5057998;28;20025;-46
2021/03/11 09:30:56;;;;;;;7.43;5.65;;;10.90;99.90;;;;;;5055809;28;20047;-46
2021/03/11 09:33:22;;;;;;;8.63;5.40;;;10.90;99.90;;;;;;5055504;28;20528;-47
2021/03/11 09:35:49;;;;;;;7.28;5.80;;;10.90;99.90;;;;;;5058138;28;20115;-46
2021/03/11 09:38:23;;;;;;;8.23;5.28;;;11.10;99.90;;;;;;5057079;28;20106;-46
2021/03/11 09:40:51;;;;;;;8.85;5.20;;;11.10;99.90;;;;;;5057888;28;20068;-47
2021/03/11 09:43:28;;;;;;;8.35;5.25;;;11.10;99.90;;;;;;5056769;28;20039;-47
2021/03/11 09:46:15;;;;;;;10.27;5.47;;;10.90;99.90;;;;;;5056823;28;20078;-47
2021/03/11 09:48:43;;;;;;;10.32;6.47;;;10.60;99.90;;;;;;5058764;28;20033;-46
2021/03/11 09:51:09;;;;;;;12.60;6.03;;;10.30;99.90;;;;;;5057175;28;20052;-47
2021/03/11 09:53:38;;;;;;;8.50;5.90;;;10.20;99.90;;;;;;5057112;28;20111;-47
2021/03/11 09:56:05;;;;;;;8.57;5.75;;;10.10;99.90;;;;;;5057803;28;20075;-46
2021/03/11 09:58:31;;;;;;;9.40;5.57;;;10.00;99.90;;;;;;5060156;28;20032;-48
2021/03/11 10:00:57;;;;;;;12.20;6.28;;;10.00;99.90;;;;;;5051559;28;20600;-46
2021/03/11 10:03:27;;;;;;;10.07;5.10;;;10.00;99.90;;;;;;5059155;28;20112;-47
2021/03/11 10:05:58;;;;;;;9.02;4.57;;;10.10;99.90;;;;;;5060114;28;20017;-46
2021/03/11 10:08:31;;;;;;;9.18;4.57;;;10.20;99.90;;;;;;5060832;28;20040;-49
2021/03/11 10:11:11;;;;;;;10.15;5.53;;;10.60;99.90;;;;;;5062005;28;20013;-46
2021/03/11 10:13:41;;;;;;;6.47;4.68;;;11.60;99.90;;;;;;5062021;28;20017;-46
2021/03/11 10:16:08;;;;;;;7.40;4.60;;;13.50;99.90;;;;;;5059447;28;20025;-49
2021/03/11 10:18:35;;;;;;;4.40;3.97;;;14.40;99.90;;;;;;5063279;28;20055;-46
2021/03/11 10:21:06;;;;;;;6.32;4.03;;;16.20;99.90;;;;;;5063038;28;20078;-45
2021/03/11 10:23:33;;;;;;;5.35;3.67;;;17.70;90.30;;;;;;5047386;28;20021;-46
2021/03/11 10:26:16;;;;;;;4.90;3.50;;;17.60;80.10;;;;;;5072233;28;20037;-47
2021/03/11 10:28:43;;;;;;;5.15;3.58;;;17.00;82.00;;;;;;5059781;28;20092;-48
2021/03/11 10:31:11;;;;;;;3.58;3.25;;;17.30;82.50;;;;;;5052882;28;20029;-45
2021/03/11 10:33:38;;;;;;;4.70;3.35;;;17.30;83.30;;;;;;5060450;28;20060;-45
2021/03/11 10:36:15;;;;;;;7.15;3.28;;;18.80;79.10;;;;;;5060992;28;20367;-45
2021/03/11 10:38:41;;;;;;;4.53;3.40;;;19.80;69.10;;;;;;5063312;28;20024;-49
2021/03/11 10:41:17;;;;;;;4.82;3.22;;;19.20;66.50;;;;;;5061658;28;20032;-48
2021/03/11 10:43:44;;;;;;;4.03;3.00;;;18.80;68.90;;;;;;5064659;28;20132;-48
2021/03/11 10:46:28;;;;;;;6.65;3.55;;;16.90;74.00;;;;;;5061079;28;20025;-46
2021/03/11 10:48:54;;;;;;;8.65;3.92;;;15.90;79.00;;;;;;5068402;28;20023;-45
2021/03/11 10:51:22;;;;;;;8.73;4.45;;;15.10;85.90;;;;;;5072415;28;20578;-48
2021/03/11 10:53:47;;;;;;;6.82;3.92;;;14.40;91.20;;;;;;5072235;28;20048;-47
2021/03/11 10:56:13;;;;;;;5.07;3.85;;;13.80;94.80;;;;;;5071830;28;20056;-46
2021/03/11 10:58:39;;;;;;;7.40;3.67;;;13.50;99.90;;;;;;5072457;28;20024;-48
2021/03/11 11:01:24;;;;;;;8.20;3.45;;;13.20;99.90;;;;;;5063254;28;20029;-45
2021/03/11 11:03:49;;;;;;;5.53;3.20;;;13.00;99.90;;;;;;5052066;28;20425;-45
2021/03/11 11:06:16;;;;;;;4.00;3.28;;;12.70;99.90;;;;;;5051545;28;20028;-47
2021/03/11 11:08:43;;;;;;;5.68;4.15;;;12.30;99.90;;;;;;5050007;28;20013;-46
2021/03/11 11:11:10;;;;;;;10.50;4.80;;;12.10;99.90;;;;;;5052325;28;20029;-47
2021/03/11 11:13:35;;;;;;;8.15;4.07;;;11.70;99.90;;;;;;5050827;28;20017;-45
2021/03/11 11:16:01;;;;;;;6.68;4.18;;;11.30;99.90;;;;;;5051094;28;20102;-44
2021/03/11 11:18:29;;;;;;;6.25;4.50;;;11.30;99.90;;;;;;5061476;28;20021;-46
2021/03/11 11:20:54;;;;;;;7.53;4.00;;;11.20;99.90;;;;;;5052340;28;20510;-46
2021/03/11 11:23:20;;;;;;;8.07;4.88;;;10.90;99.90;;;;;;5057602;28;20044;-45
2021/03/11 11:25:45;;;;;;;7.22;4.72;;;10.80;99.90;;;;;;5058566;28;20037;-46
2021/03/11 11:28:11;;;;;;;6.80;4.43;;;10.70;99.90;;;;;;5059688;28;20474;-46
2021/03/11 11:30:36;;;;;;;6.30;4.93;;;10.60;99.90;;;;;;5050013;28;20038;-45
2021/03/11 11:33:02;;;;;;;7.18;5.30;;;10.50;99.90;;;;;;5050295;28;20025;-45
2021/03/11 11:35:27;;;;;;;9.85;5.90;;;10.40;99.90;;;;;;5049373;28;20135;-46
2021/03/11 11:37:53;;;;;;;7.40;5.00;;;10.30;99.90;;;;;;5049575;28;20048;-47
2021/03/11 11:40:20;;;;;;;11.98;5.00;;;10.30;99.90;;;;;;5059042;28;20071;-46
2021/03/11 11:42:46;;;;;;;22.55;12.60;;;10.30;99.90;;;;;;5068229;28;20535;-47
2021/03/11 11:45:12;;;;;;;9.75;5.15;;;10.20;99.90;;;;;;5068629;28;20119;-47
2021/03/11 11:47:38;;;;;;;8.20;4.75;;;10.20;99.90;;;;;;5070083;28;20127;-48
2021/03/11 11:50:06;;;;;;;7.30;4.55;;;10.30;99.90;;;;;;5069891;28;20162;-48
2021/03/11 11:52:31;;;;;;;5.70;3.90;;;10.30;99.90;;;;;;5070755;28;20081;-47
2021/03/11 11:54:57;;;;;;;6.28;4.35;;;10.30;99.90;;;;;;5066274;28;20032;-48
2021/03/11 11:57:22;;;;;;;5.85;4.35;;;10.20;99.90;;;;;;5057817;28;20024;-47
2021/03/11 11:59:48;;;;;;;7.80;4.63;;;10.10;99.90;;;;;;5059498;28;20039;-49
2021/03/11 12:02:14;;;;;;;5.00;3.30;;;10.10;99.90;;;;;;5054837;28;20547;-48
2021/03/11 12:04:39;;;;;;;6.60;3.65;;;10.10;99.90;;;;;;5051246;28;20520;-49
2021/03/11 12:07:05;;;;;;;6.65;3.47;;;10.20;99.90;;;;;;5050007;28;20092;-47
2021/03/11 12:09:30;;;;;;;6.80;4.07;;;10.10;99.90;;;;;;5049836;28;20052;-45
2021/03/11 12:11:56;;;;;;;7.65;4.35;;;10.10;99.90;;;;;;5058702;28;20021;-45
2021/03/11 12:14:21;;;;;;;8.32;4.45;;;10.10;99.90;;;;;;5058747;28;20512;-45
2021/03/11 12:16:48;;;;;;;8.13;4.97;;;10.20;99.90;;;;;;5057043;28;20029;-46
2021/03/11 12:19:14;;;;;;;5.10;3.58;;;10.90;99.90;;;;;;5056725;28;20100;-47
2021/03/11 12:21:40;;;;;;;5.47;3.80;;;12.00;99.90;;;;;;5057305;28;20197;-45
2021/03/11 12:24:06;;;;;;;5.97;4.03;;;13.60;99.90;;;;;;5058179;28;20039;-46
2021/03/11 12:26:32;;;;;;;4.50;3.00;;;14.30;99.90;;;;;;5049843;28;20021;-45
2021/03/11 12:29:00;;;;;;;4.15;3.10;;;14.70;99.90;;;;;;5058545;28;20048;-48
2021/03/11 12:31:27;;;;;;;3.08;2.45;;;15.30;99.90;;;;;;5059060;28;20132;-48
2021/03/11 12:33:53;;;;;;;4.20;2.55;;;16.20;99.90;;;;;;5049130;28;20059;-47
2021/03/11 12:36:19;;;;;;;4.55;2.75;;;16.50;99.90;;;;;;5048277;28;20434;-46
2021/03/11 12:38:46;;;;;;;4.68;2.20;;;15.90;99.90;;;;;;5048923;28;20071;-45
2021/03/11 12:41:12;;;;;;;4.35;3.00;;;15.50;99.90;;;;;;5048464;28;20028;-49
2021/03/11 12:43:39;;;;;;;3.53;2.10;;;15.90;99.90;;;;;;5048275;28;20454;-50
2021/03/11 12:46:06;;;;;;;4.50;2.40;;;16.30;99.90;;;;;;5057623;28;20037;-47
2021/03/11 12:48:32;;;;;;;8.70;2.08;;;15.60;99.90;;;;;;5062879;28;20369;-47
2021/03/11 12:50:59;;;;;;;3.80;2.13;;;15.30;99.90;;;;;;5053398;28;20025;-49
2021/03/11 12:53:27;;;;;;;5.82;2.30;;;15.50;99.90;;;;;;5053773;28;20092;-46
2021/03/11 12:55:53;;;;;;;2.85;1.90;;;15.20;99.90;;;;;;5048172;28;20119;-45
2021/03/11 12:58:20;;;;;;;6.28;2.47;;;15.30;99.90;;;;;;5048039;28;20111;-45
2021/03/11 13:00:49;;;;;;;1.95;1.50;;;15.30;99.90;;;;;;5055569;28;20029;-45
2021/03/11 13:03:16;;;;;;;6.28;2.28;;;15.50;99.90;;;;;;5054891;28;20055;-45
2021/03/11 13:05:42;;;;;;;3.97;2.08;;;15.60;99.90;;;;;;5045723;28;20042;-45
2021/03/11 13:08:08;;;;;;;5.60;2.13;;;15.60;99.90;;;;;;5064638;28;20053;-46
2021/03/11 13:10:36;;;;;;;8.23;2.50;;;15.80;98.30;;;;;;5064682;28;20036;-45